sensor_id;sensor_type;location;lat;lon;timestamp;pressure;altitude;pressure_sealevel;temperature;humidity
63700;BME280;49845;47.130;142.766;2023-03-18T00:02:08;100126.56;;;-0.03;72.88
63700;BME280;49845;47.130;142.766;2023-03-18T00:04:39;100113.19;;;-0.59;74.60
63700;BME280;49845;47.130;142.766;2023-03-18T00:07:10;100096.66;;;-1.02;76.17
63700;BME280;49845;47.130;142.766;2023-03-18T00:09:42;100108.22;;;-1.16;78.02
63700;BME280;49845;47.130;142.766;2023-03-18T00:12:13;100094.56;;;-1.15;78.65
63700;BME280;49845;47.130;142.766;2023-03-18T00:14:43;100090.03;;;-0.94;78.98
63700;BME280;49845;47.130;142.766;2023-03-18T00:17:14;100082.63;;;-0.50;78.19
63700;BME280;49845;47.130;142.766;2023-03-18T00:19:45;100086.03;;;-0.51;77.17
63700;BME280;49845;47.130;142.766;2023-03-18T00:22:15;100016.97;;;-1.10;77.52
63700;BME280;49845;47.130;142.766;2023-03-18T00:24:51;100022.63;;;-1.21;77.22
63700;BME280;49845;47.130;142.766;2023-03-18T00:27:22;100068.72;;;-0.58;77.29
63700;BME280;49845;47.130;142.766;2023-03-18T00:29:52;100061.88;;;0.14;77.02
63700;BME280;49845;47.130;142.766;2023-03-18T00:32:24;100050.78;;;0.56;75.36
63700;BME280;49845;47.130;142.766;2023-03-18T00:34:55;100059.50;;;1.06;74.36
63700;BME280;49845;47.130;142.766;2023-03-18T00:37:26;100023.47;;;1.06;72.83
63700;BME280;49845;47.130;142.766;2023-03-18T00:40:02;100066.59;;;0.74;71.97
63700;BME280;49845;47.130;142.766;2023-03-18T00:42:36;100073.88;;;0.15;73.40
63700;BME280;49845;47.130;142.766;2023-03-18T00:45:15;100060.72;;;-0.35;75.56
63700;BME280;49845;47.130;142.766;2023-03-18T00:47:46;100067.34;;;-0.78;78.74
63700;BME280;49845;47.130;142.766;2023-03-18T00:50:17;100071.81;;;-0.71;79.55
63700;BME280;49845;47.130;142.766;2023-03-18T00:52:48;100063.19;;;-0.04;79.43
63700;BME280;49845;47.130;142.766;2023-03-18T00:55:20;100041.13;;;0.44;78.64
63700;BME280;49845;47.130;142.766;2023-03-18T00:57:51;100014.00;;;1.04;76.83
63700;BME280;49845;47.130;142.766;2023-03-18T01:00:22;100058.28;;;1.35;75.61
63700;BME280;49845;47.130;142.766;2023-03-18T01:02:53;99981.03;;;0.84;73.78
63700;BME280;49845;47.130;142.766;2023-03-18T01:05:24;100068.78;;;1.45;73.25
63700;BME280;49845;47.130;142.766;2023-03-18T01:07:54;100059.38;;;1.49;72.49
63700;BME280;49845;47.130;142.766;2023-03-18T01:10:27;100062.47;;;1.29;71.08
63700;BME280;49845;47.130;142.766;2023-03-18T01:12:58;100074.94;;;1.06;71.34
63700;BME280;49845;47.130;142.766;2023-03-18T01:15:29;99997.25;;;0.36;71.30
63700;BME280;49845;47.130;142.766;2023-03-18T01:17:59;100075.50;;;0.92;71.63
63700;BME280;49845;47.130;142.766;2023-03-18T01:20:31;100072.34;;;1.05;71.92
63700;BME280;49845;47.130;142.766;2023-03-18T01:23:02;100067.34;;;1.14;71.83
63700;BME280;49845;47.130;142.766;2023-03-18T01:25:34;100052.25;;;1.33;70.74
63700;BME280;49845;47.130;142.766;2023-03-18T01:28:05;99973.81;;;1.65;69.61
63700;BME280;49845;47.130;142.766;2023-03-18T01:30:36;100049.56;;;3.08;67.79
63700;BME280;49845;47.130;142.766;2023-03-18T01:33:07;100042.50;;;3.86;65.18
63700;BME280;49845;47.130;142.766;2023-03-18T01:35:38;100045.22;;;4.04;62.59
63700;BME280;49845;47.130;142.766;2023-03-18T01:38:08;99972.00;;;4.13;60.64
63700;BME280;49845;47.130;142.766;2023-03-18T01:40:41;100039.47;;;4.54;58.21
63700;BME280;49845;47.130;142.766;2023-03-18T01:43:14;100043.78;;;4.60;57.60
63700;BME280;49845;47.130;142.766;2023-03-18T01:45:48;100010.63;;;3.85;51.37
63700;BME280;49845;47.130;142.766;2023-03-18T01:48:22;100041.34;;;3.52;52.39
63700;BME280;49845;47.130;142.766;2023-03-18T01:50:57;100029.97;;;3.31;49.68
63700;BME280;49845;47.130;142.766;2023-03-18T01:53:31;99956.69;;;3.17;47.57
63700;BME280;49845;47.130;142.766;2023-03-18T01:56:06;100036.56;;;4.04;46.15
63700;BME280;49845;47.130;142.766;2023-03-18T01:58:40;100065.88;;;4.00;47.25
63700;BME280;49845;47.130;142.766;2023-03-18T02:01:16;100040.91;;;4.06;46.67
63700;BME280;49845;47.130;142.766;2023-03-18T02:03:49;100011.16;;;3.43;46.48
63700;BME280;49845;47.130;142.766;2023-03-18T02:06:20;100047.53;;;2.82;43.66
63700;BME280;49845;47.130;142.766;2023-03-18T02:08:51;100057.91;;;2.20;46.76
63700;BME280;49845;47.130;142.766;2023-03-18T02:11:23;100053.75;;;1.21;44.54
63700;BME280;49845;47.130;142.766;2023-03-18T02:13:54;100053.53;;;1.09;46.16
63700;BME280;49845;47.130;142.766;2023-03-18T02:16:27;100053.94;;;1.31;45.67
63700;BME280;49845;47.130;142.766;2023-03-18T02:19:01;100047.47;;;1.54;45.24
63700;BME280;49845;47.130;142.766;2023-03-18T02:21:43;100060.19;;;1.98;45.83
63700;BME280;49845;47.130;142.766;2023-03-18T02:24:32;100046.94;;;2.33;44.76
63700;BME280;49845;47.130;142.766;2023-03-18T02:27:16;100061.09;;;2.63;43.69
63700;BME280;49845;47.130;142.766;2023-03-18T02:29:48;100054.97;;;2.56;42.52
63700;BME280;49845;47.130;142.766;2023-03-18T02:32:24;100055.66;;;2.44;41.39
63700;BME280;49845;47.130;142.766;2023-03-18T02:34:56;100018.38;;;2.19;42.46
63700;BME280;49845;47.130;142.766;2023-03-18T02:37:29;100042.19;;;2.67;42.87
63700;BME280;49845;47.130;142.766;2023-03-18T02:40:12;100040.44;;;2.63;43.16
63700;BME280;49845;47.130;142.766;2023-03-18T02:42:45;100037.53;;;3.10;42.24
63700;BME280;49845;47.130;142.766;2023-03-18T02:45:29;100031.97;;;2.73;41.16
63700;BME280;49845;47.130;142.766;2023-03-18T02:48:04;100038.78;;;2.68;39.11
63700;BME280;49845;47.130;142.766;2023-03-18T02:50:37;100041.56;;;2.18;40.28
63700;BME280;49845;47.130;142.766;2023-03-18T02:53:10;100030.91;;;1.94;39.78
63700;BME280;49845;47.130;142.766;2023-03-18T02:55:41;100016.19;;;1.86;40.88
63700;BME280;49845;47.130;142.766;2023-03-18T02:58:13;100012.50;;;2.28;42.82
63700;BME280;49845;47.130;142.766;2023-03-18T03:00:44;100026.94;;;2.85;41.31
63700;BME280;49845;47.130;142.766;2023-03-18T03:03:14;100022.94;;;3.16;39.14
63700;BME280;49845;47.130;142.766;2023-03-18T03:05:45;100021.94;;;3.00;38.87
63700;BME280;49845;47.130;142.766;2023-03-18T03:08:16;99970.94;;;2.76;38.80
63700;BME280;49845;47.130;142.766;2023-03-18T03:10:46;99995.03;;;2.78;43.30
63700;BME280;49845;47.130;142.766;2023-03-18T03:13:20;99996.03;;;2.91;40.72
63700;BME280;49845;47.130;142.766;2023-03-18T03:15:52;99998.19;;;2.54;38.73
63700;BME280;49845;47.130;142.766;2023-03-18T03:18:23;99986.97;;;2.49;39.46
63700;BME280;49845;47.130;142.766;2023-03-18T03:20:53;99990.66;;;2.70;39.81
63700;BME280;49845;47.130;142.766;2023-03-18T03:23:24;99976.91;;;2.71;41.23
63700;BME280;49845;47.130;142.766;2023-03-18T03:25:55;99972.09;;;3.05;40.67
63700;BME280;49845;47.130;142.766;2023-03-18T03:28:27;99962.75;;;3.22;40.71
63700;BME280;49845;47.130;142.766;2023-03-18T03:30:58;99965.09;;;2.94;40.44
63700;BME280;49845;47.130;142.766;2023-03-18T03:33:29;99960.75;;;2.87;41.99
63700;BME280;49845;47.130;142.766;2023-03-18T03:35:59;99968.06;;;2.50;40.96
63700;BME280;49845;47.130;142.766;2023-03-18T03:38:30;99956.09;;;2.55;42.52
63700;BME280;49845;47.130;142.766;2023-03-18T03:41:01;99964.09;;;2.81;41.79
63700;BME280;49845;47.130;142.766;2023-03-18T03:43:33;99950.31;;;2.78;39.67
63700;BME280;49845;47.130;142.766;2023-03-18T03:46:03;99956.25;;;2.71;41.17
63700;BME280;49845;47.130;142.766;2023-03-18T03:48:34;99954.88;;;3.07;39.64
63700;BME280;49845;47.130;142.766;2023-03-18T03:51:06;99941.03;;;2.95;40.04
63700;BME280;49845;47.130;142.766;2023-03-18T03:53:37;99954.97;;;3.16;41.88
63700;BME280;49845;47.130;142.766;2023-03-18T03:56:08;99932.69;;;3.27;41.92
63700;BME280;49845;47.130;142.766;2023-03-18T03:58:40;99940.31;;;3.13;39.75
63700;BME280;49845;47.130;142.766;2023-03-18T04:01:10;99938.38;;;2.89;40.87
63700;BME280;49845;47.130;142.766;2023-03-18T04:03:41;99941.19;;;2.31;43.68
63700;BME280;49845;47.130;142.766;2023-03-18T04:06:11;99943.44;;;2.02;44.54
63700;BME280;49845;47.130;142.766;2023-03-18T04:08:42;99932.50;;;2.23;43.76
63700;BME280;49845;47.130;142.766;2023-03-18T04:11:13;99934.38;;;2.36;43.06
63700;BME280;49845;47.130;142.766;2023-03-18T04:13:49;99911.34;;;2.50;42.74
63700;BME280;49845;47.130;142.766;2023-03-18T04:16:19;99923.38;;;2.51;42.49
63700;BME280;49845;47.130;142.766;2023-03-18T04:18:50;99925.16;;;2.55;42.83
63700;BME280;49845;47.130;142.766;2023-03-18T04:21:21;99937.09;;;2.47;42.85
63700;BME280;49845;47.130;142.766;2023-03-18T04:23:51;99948.78;;;2.18;42.94
63700;BME280;49845;47.130;142.766;2023-03-18T04:26:22;99971.38;;;1.73;47.50
63700;BME280;49845;47.130;142.766;2023-03-18T04:28:54;99942.22;;;0.71;49.20
63700;BME280;49845;47.130;142.766;2023-03-18T04:31:24;99955.09;;;0.72;51.61
63700;BME280;49845;47.130;142.766;2023-03-18T04:33:55;99970.06;;;0.95;51.49
63700;BME280;49845;47.130;142.766;2023-03-18T04:36:27;99964.53;;;1.20;50.45
63700;BME280;49845;47.130;142.766;2023-03-18T04:38:57;99948.97;;;1.14;49.87
63700;BME280;49845;47.130;142.766;2023-03-18T04:41:28;99976.34;;;1.09;47.10
63700;BME280;49845;47.130;142.766;2023-03-18T04:44:00;99969.56;;;1.14;45.86
63700;BME280;49845;47.130;142.766;2023-03-18T04:46:31;99940.22;;;1.03;45.62
63700;BME280;49845;47.130;142.766;2023-03-18T04:49:02;99863.25;;;0.63;46.12
63700;BME280;49845;47.130;142.766;2023-03-18T04:51:33;99961.34;;;1.37;46.06
63700;BME280;49845;47.130;142.766;2023-03-18T04:54:05;99956.53;;;1.58;46.40
63700;BME280;49845;47.130;142.766;2023-03-18T04:56:35;99948.31;;;1.84;46.15
63700;BME280;49845;47.130;142.766;2023-03-18T04:59:08;99962.34;;;2.04;43.90
63700;BME280;49845;47.130;142.766;2023-03-18T05:01:39;99946.00;;;2.02;44.13
63700;BME280;49845;47.130;142.766;2023-03-18T05:04:09;99948.41;;;1.90;42.78
63700;BME280;49845;47.130;142.766;2023-03-18T05:06:40;99938.53;;;1.60;41.89
63700;BME280;49845;47.130;142.766;2023-03-18T05:09:11;99943.59;;;1.54;43.46
63700;BME280;49845;47.130;142.766;2023-03-18T05:11:53;99956.44;;;1.52;44.84
63700;BME280;49845;47.130;142.766;2023-03-18T05:14:27;99957.31;;;1.53;46.23
63700;BME280;49845;47.130;142.766;2023-03-18T05:16:58;99947.78;;;1.47;45.58
63700;BME280;49845;47.130;142.766;2023-03-18T05:19:29;99927.00;;;1.35;43.61
63700;BME280;49845;47.130;142.766;2023-03-18T05:22:00;99949.56;;;1.51;45.45
63700;BME280;49845;47.130;142.766;2023-03-18T05:24:35;99956.63;;;1.64;45.56
63700;BME280;49845;47.130;142.766;2023-03-18T05:27:16;99947.59;;;1.35;44.88
63700;BME280;49845;47.130;142.766;2023-03-18T05:29:48;99968.31;;;2.02;43.95
63700;BME280;49845;47.130;142.766;2023-03-18T05:32:19;99955.81;;;2.31;44.57
63700;BME280;49845;47.130;142.766;2023-03-18T05:34:49;99951.56;;;2.36;44.64
63700;BME280;49845;47.130;142.766;2023-03-18T05:37:20;99934.72;;;1.94;45.14
63700;BME280;49845;47.130;142.766;2023-03-18T05:39:50;99914.53;;;1.61;44.06
63700;BME280;49845;47.130;142.766;2023-03-18T05:42:21;99953.50;;;1.87;44.75
63700;BME280;49845;47.130;142.766;2023-03-18T05:44:53;99950.00;;;1.82;44.51
63700;BME280;49845;47.130;142.766;2023-03-18T05:47:25;99967.97;;;1.77;45.65
63700;BME280;49845;47.130;142.766;2023-03-18T05:49:55;99962.00;;;1.80;46.58
63700;BME280;49845;47.130;142.766;2023-03-18T05:52:26;99943.19;;;1.87;47.65
63700;BME280;49845;47.130;142.766;2023-03-18T05:54:56;99942.78;;;1.56;47.58
63700;BME280;49845;47.130;142.766;2023-03-18T05:57:27;99946.59;;;1.25;47.38
63700;BME280;49845;47.130;142.766;2023-03-18T05:59:59;99941.13;;;1.06;47.67
63700;BME280;49845;47.130;142.766;2023-03-18T06:02:31;99947.94;;;1.03;48.56
63700;BME280;49845;47.130;142.766;2023-03-18T06:05:01;99965.69;;;0.89;49.19
63700;BME280;49845;47.130;142.766;2023-03-18T06:07:32;99942.44;;;0.37;53.23
63700;BME280;49845;47.130;142.766;2023-03-18T06:10:07;99958.47;;;0.68;55.55
63700;BME280;49845;47.130;142.766;2023-03-18T06:12:39;99961.84;;;0.67;56.86
63700;BME280;49845;47.130;142.766;2023-03-18T06:15:13;99972.16;;;0.67;55.82
63700;BME280;49845;47.130;142.766;2023-03-18T06:17:44;99959.44;;;0.75;54.64
63700;BME280;49845;47.130;142.766;2023-03-18T06:20:15;99932.41;;;0.50;53.82
63700;BME280;49845;47.130;142.766;2023-03-18T06:22:47;99946.09;;;0.49;54.14
63700;BME280;49845;47.130;142.766;2023-03-18T06:25:19;99940.53;;;0.27;53.94
63700;BME280;49845;47.130;142.766;2023-03-18T06:27:49;99961.13;;;0.29;54.37
63700;BME280;49845;47.130;142.766;2023-03-18T06:30:22;99971.00;;;0.51;54.98
63700;BME280;49845;47.130;142.766;2023-03-18T06:32:53;99958.75;;;0.83;54.94
63700;BME280;49845;47.130;142.766;2023-03-18T06:35:23;99946.50;;;0.70;53.61
63700;BME280;49845;47.130;142.766;2023-03-18T06:37:55;99950.34;;;0.45;52.77
63700;BME280;49845;47.130;142.766;2023-03-18T06:40:25;99954.28;;;0.29;52.97
63700;BME280;49845;47.130;142.766;2023-03-18T06:42:56;99959.06;;;0.11;52.40
63700;BME280;49845;47.130;142.766;2023-03-18T06:45:28;99962.28;;;0.01;54.45
63700;BME280;49845;47.130;142.766;2023-03-18T06:47:59;99958.31;;;-0.23;57.73
63700;BME280;49845;47.130;142.766;2023-03-18T06:50:31;99945.25;;;-0.34;58.25
63700;BME280;49845;47.130;142.766;2023-03-18T06:53:01;99954.66;;;-0.34;58.67
63700;BME280;49845;47.130;142.766;2023-03-18T06:55:32;99966.81;;;-0.27;59.30
63700;BME280;49845;47.130;142.766;2023-03-18T06:58:03;99922.38;;;-0.23;58.73
63700;BME280;49845;47.130;142.766;2023-03-18T07:00:35;99894.66;;;-0.39;59.02
63700;BME280;49845;47.130;142.766;2023-03-18T07:03:08;99941.94;;;-0.30;57.85
63700;BME280;49845;47.130;142.766;2023-03-18T07:05:39;99943.41;;;-0.39;58.38
63700;BME280;49845;47.130;142.766;2023-03-18T07:08:10;99946.03;;;-0.36;58.68
63700;BME280;49845;47.130;142.766;2023-03-18T07:10:40;99910.81;;;-0.44;59.07
63700;BME280;49845;47.130;142.766;2023-03-18T07:13:11;99935.41;;;-0.14;59.38
63700;BME280;49845;47.130;142.766;2023-03-18T07:15:44;99939.78;;;-0.10;57.82
63700;BME280;49845;47.130;142.766;2023-03-18T07:18:14;99936.31;;;-0.12;55.87
63700;BME280;49845;47.130;142.766;2023-03-18T07:20:45;99933.66;;;-0.16;54.98
63700;BME280;49845;47.130;142.766;2023-03-18T07:23:16;99929.38;;;-0.16;54.67
63700;BME280;49845;47.130;142.766;2023-03-18T07:25:47;99926.94;;;-0.10;54.67
63700;BME280;49845;47.130;142.766;2023-03-18T07:28:17;99922.84;;;-0.02;54.05
63700;BME280;49845;47.130;142.766;2023-03-18T07:30:50;99927.16;;;0.01;53.69
63700;BME280;49845;47.130;142.766;2023-03-18T07:33:20;99931.44;;;0.01;53.16
63700;BME280;49845;47.130;142.766;2023-03-18T07:35:51;99935.72;;;0.00;53.13
63700;BME280;49845;47.130;142.766;2023-03-18T07:38:22;99932.97;;;-0.08;50.68
63700;BME280;49845;47.130;142.766;2023-03-18T07:40:52;99934.63;;;-0.11;50.13
63700;BME280;49845;47.130;142.766;2023-03-18T07:43:24;99932.84;;;-0.14;50.63
63700;BME280;49845;47.130;142.766;2023-03-18T07:45:56;99928.47;;;-0.18;49.46
63700;BME280;49845;47.130;142.766;2023-03-18T07:48:27;99932.78;;;-0.17;50.01
63700;BME280;49845;47.130;142.766;2023-03-18T07:50:57;99943.00;;;-0.20;49.70
63700;BME280;49845;47.130;142.766;2023-03-18T07:53:28;99938.56;;;-0.27;49.44
63700;BME280;49845;47.130;142.766;2023-03-18T07:56:02;99937.72;;;-0.26;48.99
63700;BME280;49845;47.130;142.766;2023-03-18T07:58:32;99936.13;;;-0.21;49.77
63700;BME280;49845;47.130;142.766;2023-03-18T08:01:05;99941.19;;;-0.24;50.59
63700;BME280;49845;47.130;142.766;2023-03-18T08:03:38;99936.00;;;-0.27;50.48
63700;BME280;49845;47.130;142.766;2023-03-18T08:06:12;99930.59;;;-0.39;49.89
63700;BME280;49845;47.130;142.766;2023-03-18T08:08:45;99872.34;;;-0.80;49.75
63700;BME280;49845;47.130;142.766;2023-03-18T08:11:19;99956.31;;;-0.36;50.86
63700;BME280;49845;47.130;142.766;2023-03-18T08:13:54;99949.38;;;-0.40;50.92
63700;BME280;49845;47.130;142.766;2023-03-18T08:16:27;99929.34;;;-0.55;50.57
63700;BME280;49845;47.130;142.766;2023-03-18T08:19:04;99968.06;;;-0.46;50.47
63700;BME280;49845;47.130;142.766;2023-03-18T08:21:35;99954.25;;;-0.51;51.44
63700;BME280;49845;47.130;142.766;2023-03-18T08:24:06;99961.97;;;-0.51;51.34
63700;BME280;49845;47.130;142.766;2023-03-18T08:26:39;99960.88;;;-0.61;51.56
63700;BME280;49845;47.130;142.766;2023-03-18T08:29:10;99964.19;;;-0.65;52.63
63700;BME280;49845;47.130;142.766;2023-03-18T08:31:42;99957.34;;;-0.66;52.52
63700;BME280;49845;47.130;142.766;2023-03-18T08:34:15;99960.75;;;-0.67;52.36
63700;BME280;49845;47.130;142.766;2023-03-18T08:36:45;99956.47;;;-0.67;52.41
63700;BME280;49845;47.130;142.766;2023-03-18T08:39:16;99958.91;;;-0.71;52.65
63700;BME280;49845;47.130;142.766;2023-03-18T08:41:47;99962.09;;;-0.81;52.61
63700;BME280;49845;47.130;142.766;2023-03-18T08:44:18;99967.00;;;-0.91;52.31
63700;BME280;49845;47.130;142.766;2023-03-18T08:47:00;99965.03;;;-1.01;52.48
63700;BME280;49845;47.130;142.766;2023-03-18T08:49:36;99948.94;;;-1.28;52.80
63700;BME280;49845;47.130;142.766;2023-03-18T08:52:09;99978.19;;;-1.20;52.68
63700;BME280;49845;47.130;142.766;2023-03-18T08:54:41;99971.94;;;-1.30;52.93
63700;BME280;49845;47.130;142.766;2023-03-18T08:57:14;99979.53;;;-1.35;53.43
63700;BME280;49845;47.130;142.766;2023-03-18T08:59:47;99980.00;;;-1.48;53.63
63700;BME280;49845;47.130;142.766;2023-03-18T09:02:20;99974.75;;;-1.54;53.64
63700;BME280;49845;47.130;142.766;2023-03-18T09:05:21;99971.84;;;-1.66;53.98
63700;BME280;49845;47.130;142.766;2023-03-18T09:08:22;99970.84;;;-1.70;54.03
63700;BME280;49845;47.130;142.766;2023-03-18T09:10:57;99980.25;;;-1.70;53.58
63700;BME280;49845;47.130;142.766;2023-03-18T09:13:30;99969.56;;;-1.86;53.71
63700;BME280;49845;47.130;142.766;2023-03-18T09:16:07;99988.69;;;-1.75;53.88
63700;BME280;49845;47.130;142.766;2023-03-18T09:18:53;99988.50;;;-1.81;53.97
63700;BME280;49845;47.130;142.766;2023-03-18T09:21:38;99990.06;;;-1.86;54.16
63700;BME280;49845;47.130;142.766;2023-03-18T09:24:18;99995.00;;;-1.92;54.55
63700;BME280;49845;47.130;142.766;2023-03-18T09:27:00;99994.81;;;-1.98;54.21
63700;BME280;49845;47.130;142.766;2023-03-18T09:29:35;99965.00;;;-2.25;54.50
63700;BME280;49845;47.130;142.766;2023-03-18T09:32:06;99998.28;;;-1.96;54.83
63700;BME280;49845;47.130;142.766;2023-03-18T09:34:40;100001.78;;;-1.94;55.08
63700;BME280;49845;47.130;142.766;2023-03-18T09:37:12;100000.00;;;-1.95;54.79
63700;BME280;49845;47.130;142.766;2023-03-18T09:39:42;99963.56;;;-2.17;54.88
63700;BME280;49845;47.130;142.766;2023-03-18T09:42:24;99998.88;;;-2.05;54.82
63700;BME280;49845;47.130;142.766;2023-03-18T09:45:01;99994.53;;;-2.07;55.48
63700;BME280;49845;47.130;142.766;2023-03-18T09:47:51;99924.75;;;-2.57;55.46
63700;BME280;49845;47.130;142.766;2023-03-18T09:50:34;100001.97;;;-2.15;55.87
63700;BME280;49845;47.130;142.766;2023-03-18T09:53:20;100017.53;;;-2.09;55.42
63700;BME280;49845;47.130;142.766;2023-03-18T09:55:55;100009.53;;;-2.20;55.46
63700;BME280;49845;47.130;142.766;2023-03-18T09:58:36;100024.13;;;-2.17;55.65
63700;BME280;49845;47.130;142.766;2023-03-18T10:01:14;100027.56;;;-2.15;56.28
63700;BME280;49845;47.130;142.766;2023-03-18T10:03:52;100030.34;;;-2.09;56.40
63700;BME280;49845;47.130;142.766;2023-03-18T10:06:27;100028.47;;;-2.14;56.68
63700;BME280;49845;47.130;142.766;2023-03-18T10:09:07;100027.00;;;-2.06;57.31
63700;BME280;49845;47.130;142.766;2023-03-18T10:11:41;99987.13;;;-2.27;57.49
63700;BME280;49845;47.130;142.766;2023-03-18T10:14:30;100031.25;;;-2.07;57.05
63700;BME280;49845;47.130;142.766;2023-03-18T10:17:20;100037.78;;;-2.17;56.77
63700;BME280;49845;47.130;142.766;2023-03-18T10:19:59;100050.59;;;-2.17;56.96
63700;BME280;49845;47.130;142.766;2023-03-18T10:23:01;100033.09;;;-2.30;57.17
63700;BME280;49845;47.130;142.766;2023-03-18T10:25:42;100041.13;;;-2.19;57.55
63700;BME280;49845;47.130;142.766;2023-03-18T10:28:39;100057.25;;;-2.22;57.13
63700;BME280;49845;47.130;142.766;2023-03-18T10:31:21;100038.97;;;-2.32;57.36
63700;BME280;49845;47.130;142.766;2023-03-18T10:34:03;100051.91;;;-2.28;57.71
63700;BME280;49845;47.130;142.766;2023-03-18T10:36:45;100062.94;;;-2.30;57.55
63700;BME280;49845;47.130;142.766;2023-03-18T10:39:22;100053.47;;;-2.33;56.84
63700;BME280;49845;47.130;142.766;2023-03-18T10:41:55;100050.66;;;-2.41;57.13
63700;BME280;49845;47.130;142.766;2023-03-18T10:44:31;100040.72;;;-2.58;56.74
63700;BME280;49845;47.130;142.766;2023-03-18T10:47:12;100059.53;;;-2.56;58.02
63700;BME280;49845;47.130;142.766;2023-03-18T10:49:47;100054.53;;;-2.53;58.47
63700;BME280;49845;47.130;142.766;2023-03-18T10:52:31;100056.97;;;-2.56;59.07
63700;BME280;49845;47.130;142.766;2023-03-18T10:55:12;100053.56;;;-2.57;59.40
63700;BME280;49845;47.130;142.766;2023-03-18T10:57:44;100055.97;;;-2.62;59.36
63700;BME280;49845;47.130;142.766;2023-03-18T11:00:26;100036.81;;;-2.73;59.71
63700;BME280;49845;47.130;142.766;2023-03-18T11:03:00;100045.81;;;-2.58;59.28
63700;BME280;49845;47.130;142.766;2023-03-18T11:05:37;100006.22;;;-2.70;59.39
63700;BME280;49845;47.130;142.766;2023-03-18T11:08:31;100049.91;;;-2.38;59.46
63700;BME280;49845;47.130;142.766;2023-03-18T11:11:20;99898.47;;;-3.33;58.46
63700;BME280;49845;47.130;142.766;2023-03-18T11:13:52;100050.91;;;-2.33;58.75
63700;BME280;49845;47.130;142.766;2023-03-18T11:16:34;100049.03;;;-2.39;58.83
63700;BME280;49845;47.130;142.766;2023-03-18T11:19:27;100048.03;;;-2.42;58.89
63700;BME280;49845;47.130;142.766;2023-03-18T11:22:18;99997.34;;;-2.81;58.90
63700;BME280;49845;47.130;142.766;2023-03-18T11:25:10;100032.50;;;-2.48;58.85
63700;BME280;49845;47.130;142.766;2023-03-18T11:27:45;100046.41;;;-2.40;59.48
63700;BME280;49845;47.130;142.766;2023-03-18T11:30:20;99990.78;;;-2.73;58.97
63700;BME280;49845;47.130;142.766;2023-03-18T11:33:05;100035.00;;;-2.50;59.18
63700;BME280;49845;47.130;142.766;2023-03-18T11:35:44;100042.66;;;-2.51;59.70
63700;BME280;49845;47.130;142.766;2023-03-18T11:38:19;100033.88;;;-2.59;59.26
63700;BME280;49845;47.130;142.766;2023-03-18T11:40:52;100034.72;;;-2.59;59.53
63700;BME280;49845;47.130;142.766;2023-03-18T11:43:27;100032.19;;;-2.57;60.33
63700;BME280;49845;47.130;142.766;2023-03-18T11:46:03;100028.53;;;-2.66;60.01
63700;BME280;49845;47.130;142.766;2023-03-18T11:48:40;100017.28;;;-2.71;60.09
63700;BME280;49845;47.130;142.766;2023-03-18T11:51:27;100035.38;;;-2.65;60.22
63700;BME280;49845;47.130;142.766;2023-03-18T11:54:15;100027.56;;;-2.69;60.17
63700;BME280;49845;47.130;142.766;2023-03-18T11:56:52;100026.59;;;-2.73;60.05
63700;BME280;49845;47.130;142.766;2023-03-18T11:59:38;100007.56;;;-2.81;60.13
63700;BME280;49845;47.130;142.766;2023-03-18T12:02:38;100018.00;;;-2.75;60.60
63700;BME280;49845;47.130;142.766;2023-03-18T12:05:37;100017.81;;;-2.81;60.79
63700;BME280;49845;47.130;142.766;2023-03-18T12:08:16;100006.75;;;-2.80;60.44
63700;BME280;49845;47.130;142.766;2023-03-18T12:10:57;100013.00;;;-2.72;61.58
63700;BME280;49845;47.130;142.766;2023-03-18T12:13:47;100013.00;;;-2.72;61.42
63700;BME280;49845;47.130;142.766;2023-03-18T12:16:36;100000.81;;;-2.79;61.11
63700;BME280;49845;47.130;142.766;2023-03-18T12:19:29;99995.91;;;-2.73;61.14
63700;BME280;49845;47.130;142.766;2023-03-18T12:22:17;100008.06;;;-2.66;60.80
63700;BME280;49845;47.130;142.766;2023-03-18T12:28:12;100004.13;;;-2.56;60.83
63700;BME280;49845;47.130;142.766;2023-03-18T12:30:58;100001.47;;;-2.59;60.99
63700;BME280;49845;47.130;142.766;2023-03-18T12:33:42;99982.41;;;-2.69;60.84
63700;BME280;49845;47.130;142.766;2023-03-18T12:36:21;99989.63;;;-2.55;60.96
63700;BME280;49845;47.130;142.766;2023-03-18T12:42:11;100002.53;;;-2.52;60.73
63700;BME280;49845;47.130;142.766;2023-03-18T12:44:56;99996.50;;;-2.54;60.67
63700;BME280;49845;47.130;142.766;2023-03-18T12:47:33;99976.75;;;-2.58;61.15
63700;BME280;49845;47.130;142.766;2023-03-18T12:50:15;99977.84;;;-2.50;61.08
63700;BME280;49845;47.130;142.766;2023-03-18T12:52:49;99982.28;;;-2.45;61.05
63700;BME280;49845;47.130;142.766;2023-03-18T12:55:29;99981.44;;;-2.45;61.13
63700;BME280;49845;47.130;142.766;2023-03-18T12:58:06;99974.50;;;-2.49;60.81
63700;BME280;49845;47.130;142.766;2023-03-18T13:00:48;99908.59;;;-3.36;59.71
63700;BME280;49845;47.130;142.766;2023-03-18T13:04:13;99981.53;;;-3.44;61.07
63700;BME280;49845;47.130;142.766;2023-03-18T13:07:13;99977.09;;;-3.50;62.18
63700;BME280;49845;47.130;142.766;2023-03-18T13:09:56;99977.66;;;-3.59;62.65
63700;BME280;49845;47.130;142.766;2023-03-18T13:12:31;99978.25;;;-3.66;63.08
63700;BME280;49845;47.130;142.766;2023-03-18T13:15:10;99973.88;;;-3.69;63.30
63700;BME280;49845;47.130;142.766;2023-03-18T13:17:48;99970.47;;;-3.69;63.08
63700;BME280;49845;47.130;142.766;2023-03-18T13:20:33;99947.16;;;-3.78;62.52
63700;BME280;49845;47.130;142.766;2023-03-18T13:23:29;99970.34;;;-3.72;62.73
63700;BME280;49845;47.130;142.766;2023-03-18T13:26:17;99961.66;;;-3.77;62.63
63700;BME280;49845;47.130;142.766;2023-03-18T13:29:04;99956.34;;;-3.83;63.33